sensor_id;sensor_type;location;lat;lon;timestamp;P1;durP1;ratioP1;P2;durP2;ratioP2
13002;SDS011;6566;57.702;11.984;2022-07-06T00:00:37;6.13;;;1.20;;
13002;SDS011;6566;57.702;11.984;2022-07-06T00:03:03;9.07;;;2.22;;
13002;SDS011;6566;57.702;11.984;2022-07-06T00:05:30;10.52;;;1.83;;
13002;SDS011;6566;57.702;11.984;2022-07-06T00:07:56;7.20;;;1.33;;
13002;SDS011;6566;57.702;11.984;2022-07-06T00:10:22;13.23;;;1.63;;
13002;SDS011;6566;57.702;11.984;2022-07-06T00:12:48;10.25;;;1.70;;
13002;SDS011;6566;57.702;11.984;2022-07-06T00:15:14;8.73;;;1.63;;
13002;SDS011;6566;57.702;11.984;2022-07-06T00:17:39;9.27;;;2.00;;
13002;SDS011;6566;57.702;11.984;2022-07-06T00:20:07;9.38;;;1.80;;
13002;SDS011;6566;57.702;11.984;2022-07-06T00:22:34;6.38;;;1.48;;
13002;SDS011;6566;57.702;11.984;2022-07-06T00:25:00;5.55;;;1.08;;
13002;SDS011;6566;57.702;11.984;2022-07-06T00:27:27;15.43;;;1.38;;
13002;SDS011;6566;57.702;11.984;2022-07-06T00:29:53;5.63;;;1.20;;
13002;SDS011;6566;57.702;11.984;2022-07-06T00:32:20;7.38;;;1.17;;
13002;SDS011;6566;57.702;11.984;2022-07-06T00:34:46;4.22;;;1.38;;
13002;SDS011;6566;57.702;11.984;2022-07-06T00:37:11;11.80;;;1.33;;
13002;SDS011;6566;57.702;11.984;2022-07-06T00:39:41;10.43;;;1.00;;
13002;SDS011;6566;57.702;11.984;2022-07-06T00:42:08;5.07;;;0.85;;
13002;SDS011;6566;57.702;11.984;2022-07-06T00:44:34;6.60;;;1.10;;
13002;SDS011;6566;57.702;11.984;2022-07-06T00:47:00;7.85;;;1.05;;
13002;SDS011;6566;57.702;11.984;2022-07-06T00:49:27;5.22;;;1.13;;
13002;SDS011;6566;57.702;11.984;2022-07-06T00:52:12;8.90;;;1.80;;
13002;SDS011;6566;57.702;11.984;2022-07-06T00:54:38;11.52;;;1.00;;
13002;SDS011;6566;57.702;11.984;2022-07-06T00:57:06;5.18;;;0.85;;
13002;SDS011;6566;57.702;11.984;2022-07-06T00:59:32;6.40;;;1.05;;
13002;SDS011;6566;57.702;11.984;2022-07-06T01:01:59;8.88;;;1.20;;
13002;SDS011;6566;57.702;11.984;2022-07-06T01:04:25;4.80;;;1.10;;
13002;SDS011;6566;57.702;11.984;2022-07-06T01:06:52;8.63;;;0.90;;
13002;SDS011;6566;57.702;11.984;2022-07-06T01:09:19;6.63;;;0.95;;
13002;SDS011;6566;57.702;11.984;2022-07-06T01:11:46;8.73;;;1.73;;
13002;SDS011;6566;57.702;11.984;2022-07-06T01:14:12;7.40;;;1.55;;
13002;SDS011;6566;57.702;11.984;2022-07-06T01:16:40;4.63;;;1.02;;
13002;SDS011;6566;57.702;11.984;2022-07-06T01:19:06;2.47;;;0.82;;
13002;SDS011;6566;57.702;11.984;2022-07-06T01:21:32;5.78;;;0.80;;
13002;SDS011;6566;57.702;11.984;2022-07-06T01:23:59;4.57;;;0.93;;
13002;SDS011;6566;57.702;11.984;2022-07-06T01:26:25;3.25;;;0.80;;
13002;SDS011;6566;57.702;11.984;2022-07-06T01:28:52;7.38;;;1.30;;
13002;SDS011;6566;57.702;11.984;2022-07-06T01:31:19;6.55;;;1.10;;
13002;SDS011;6566;57.702;11.984;2022-07-06T01:33:45;2.67;;;0.93;;
13002;SDS011;6566;57.702;11.984;2022-07-06T01:36:12;5.88;;;1.08;;
13002;SDS011;6566;57.702;11.984;2022-07-06T01:38:50;5.07;;;1.00;;
13002;SDS011;6566;57.702;11.984;2022-07-06T01:41:15;5.47;;;1.25;;
13002;SDS011;6566;57.702;11.984;2022-07-06T01:43:43;6.93;;;1.50;;
13002;SDS011;6566;57.702;11.984;2022-07-06T01:46:09;5.63;;;0.90;;
13002;SDS011;6566;57.702;11.984;2022-07-06T01:48:37;12.13;;;1.40;;
13002;SDS011;6566;57.702;11.984;2022-07-06T01:51:05;6.68;;;1.23;;
13002;SDS011;6566;57.702;11.984;2022-07-06T01:53:31;4.00;;;0.80;;
13002;SDS011;6566;57.702;11.984;2022-07-06T01:55:58;5.50;;;1.00;;
13002;SDS011;6566;57.702;11.984;2022-07-06T01:58:24;9.38;;;1.10;;
13002;SDS011;6566;57.702;11.984;2022-07-06T02:00:51;6.75;;;1.10;;
13002;SDS011;6566;57.702;11.984;2022-07-06T02:03:16;3.78;;;1.08;;
13002;SDS011;6566;57.702;11.984;2022-07-06T02:05:42;4.90;;;0.77;;
13002;SDS011;6566;57.702;11.984;2022-07-06T02:08:07;2.50;;;0.80;;
13002;SDS011;6566;57.702;11.984;2022-07-06T02:10:32;5.30;;;1.02;;
13002;SDS011;6566;57.702;11.984;2022-07-06T02:12:59;4.65;;;1.00;;
13002;SDS011;6566;57.702;11.984;2022-07-06T02:15:26;7.05;;;1.10;;
13002;SDS011;6566;57.702;11.984;2022-07-06T02:17:52;5.15;;;0.80;;
13002;SDS011;6566;57.702;11.984;2022-07-06T02:20:18;4.18;;;0.70;;
13002;SDS011;6566;57.702;11.984;2022-07-06T02:22:44;5.40;;;0.98;;
13002;SDS011;6566;57.702;11.984;2022-07-06T02:25:11;5.72;;;1.00;;
13002;SDS011;6566;57.702;11.984;2022-07-06T02:27:37;4.25;;;0.77;;
13002;SDS011;6566;57.702;11.984;2022-07-06T02:30:04;5.80;;;0.80;;
13002;SDS011;6566;57.702;11.984;2022-07-06T02:32:30;4.18;;;0.70;;
13002;SDS011;6566;57.702;11.984;2022-07-06T02:34:57;4.05;;;1.13;;
13002;SDS011;6566;57.702;11.984;2022-07-06T02:37:25;4.72;;;1.00;;
13002;SDS011;6566;57.702;11.984;2022-07-06T02:39:51;4.00;;;0.75;;
13002;SDS011;6566;57.702;11.984;2022-07-06T02:42:17;4.95;;;0.95;;
13002;SDS011;6566;57.702;11.984;2022-07-06T02:44:45;3.65;;;0.90;;
13002;SDS011;6566;57.702;11.984;2022-07-06T02:47:10;4.60;;;0.65;;
13002;SDS011;6566;57.702;11.984;2022-07-06T02:49:37;2.47;;;0.77;;
13002;SDS011;6566;57.702;11.984;2022-07-06T02:52:03;6.93;;;0.73;;
13002;SDS011;6566;57.702;11.984;2022-07-06T02:54:30;2.17;;;0.60;;
13002;SDS011;6566;57.702;11.984;2022-07-06T02:56:56;2.50;;;0.60;;
13002;SDS011;6566;57.702;11.984;2022-07-06T02:59:23;3.28;;;1.00;;
13002;SDS011;6566;57.702;11.984;2022-07-06T03:01:49;4.38;;;0.75;;
13002;SDS011;6566;57.702;11.984;2022-07-06T03:04:16;6.85;;;1.02;;
13002;SDS011;6566;57.702;11.984;2022-07-06T03:06:43;3.03;;;0.65;;
13002;SDS011;6566;57.702;11.984;2022-07-06T03:09:09;3.25;;;0.73;;
13002;SDS011;6566;57.702;11.984;2022-07-06T03:11:35;3.58;;;0.50;;
13002;SDS011;6566;57.702;11.984;2022-07-06T03:14:03;2.15;;;0.60;;
13002;SDS011;6566;57.702;11.984;2022-07-06T03:16:30;6.20;;;0.70;;
13002;SDS011;6566;57.702;11.984;2022-07-06T03:18:56;8.70;;;0.98;;
13002;SDS011;6566;57.702;11.984;2022-07-06T03:21:23;3.75;;;0.52;;
13002;SDS011;6566;57.702;11.984;2022-07-06T03:23:50;3.40;;;0.77;;
13002;SDS011;6566;57.702;11.984;2022-07-06T03:26:15;2.63;;;0.55;;
13002;SDS011;6566;57.702;11.984;2022-07-06T03:28:41;4.50;;;0.93;;
13002;SDS011;6566;57.702;11.984;2022-07-06T03:31:08;6.10;;;0.80;;
13002;SDS011;6566;57.702;11.984;2022-07-06T03:33:34;3.05;;;0.50;;
13002;SDS011;6566;57.702;11.984;2022-07-06T03:35:59;2.95;;;0.60;;
13002;SDS011;6566;57.702;11.984;2022-07-06T03:38:26;1.58;;;0.47;;
13002;SDS011;6566;57.702;11.984;2022-07-06T03:40:52;1.70;;;0.60;;
13002;SDS011;6566;57.702;11.984;2022-07-06T03:43:18;9.63;;;0.98;;
13002;SDS011;6566;57.702;11.984;2022-07-06T03:45:44;3.73;;;0.87;;
13002;SDS011;6566;57.702;11.984;2022-07-06T03:48:12;5.35;;;1.00;;
13002;SDS011;6566;57.702;11.984;2022-07-06T03:50:38;8.52;;;0.93;;
13002;SDS011;6566;57.702;11.984;2022-07-06T03:53:05;11.23;;;1.38;;
13002;SDS011;6566;57.702;11.984;2022-07-06T03:55:31;11.13;;;1.30;;
13002;SDS011;6566;57.702;11.984;2022-07-06T03:57:58;10.50;;;1.67;;
13002;SDS011;6566;57.702;11.984;2022-07-06T04:00:25;7.55;;;1.30;;
13002;SDS011;6566;57.702;11.984;2022-07-06T04:02:51;8.43;;;1.10;;
13002;SDS011;6566;57.702;11.984;2022-07-06T04:05:18;5.10;;;0.63;;
13002;SDS011;6566;57.702;11.984;2022-07-06T04:07:49;11.65;;;0.80;;
13002;SDS011;6566;57.702;11.984;2022-07-06T04:10:15;5.78;;;0.90;;
13002;SDS011;6566;57.702;11.984;2022-07-06T04:12:42;5.90;;;0.90;;
13002;SDS011;6566;57.702;11.984;2022-07-06T04:15:08;7.22;;;1.02;;
13002;SDS011;6566;57.702;11.984;2022-07-06T04:17:34;5.75;;;0.70;;
13002;SDS011;6566;57.702;11.984;2022-07-06T04:20:23;5.28;;;0.70;;
13002;SDS011;6566;57.702;11.984;2022-07-06T04:22:50;2.03;;;0.47;;
13002;SDS011;6566;57.702;11.984;2022-07-06T04:25:16;4.63;;;0.50;;
13002;SDS011;6566;57.702;11.984;2022-07-06T04:27:43;5.70;;;0.82;;
13002;SDS011;6566;57.702;11.984;2022-07-06T04:30:09;2.58;;;0.80;;
13002;SDS011;6566;57.702;11.984;2022-07-06T04:32:36;3.15;;;0.50;;
13002;SDS011;6566;57.702;11.984;2022-07-06T04:35:03;1.80;;;0.47;;
13002;SDS011;6566;57.702;11.984;2022-07-06T04:37:31;2.78;;;0.40;;
13002;SDS011;6566;57.702;11.984;2022-07-06T04:39:58;3.72;;;0.50;;
13002;SDS011;6566;57.702;11.984;2022-07-06T04:42:24;2.38;;;0.40;;
13002;SDS011;6566;57.702;11.984;2022-07-06T04:44:51;3.05;;;0.60;;
13002;SDS011;6566;57.702;11.984;2022-07-06T04:47:20;3.42;;;0.38;;
13002;SDS011;6566;57.702;11.984;2022-07-06T04:49:47;1.27;;;0.30;;
13002;SDS011;6566;57.702;11.984;2022-07-06T04:52:13;2.53;;;0.45;;
13002;SDS011;6566;57.702;11.984;2022-07-06T04:54:39;3.17;;;0.40;;
13002;SDS011;6566;57.702;11.984;2022-07-06T04:57:06;0.80;;;0.30;;
13002;SDS011;6566;57.702;11.984;2022-07-06T04:59:32;4.32;;;0.60;;
13002;SDS011;6566;57.702;11.984;2022-07-06T05:01:59;2.75;;;0.63;;
13002;SDS011;6566;57.702;11.984;2022-07-06T05:04:24;3.83;;;0.70;;
13002;SDS011;6566;57.702;11.984;2022-07-06T05:06:50;3.88;;;0.43;;
13002;SDS011;6566;57.702;11.984;2022-07-06T05:09:17;4.90;;;0.50;;
13002;SDS011;6566;57.702;11.984;2022-07-06T05:11:43;4.28;;;0.65;;
13002;SDS011;6566;57.702;11.984;2022-07-06T05:14:11;1.85;;;0.40;;
13002;SDS011;6566;57.702;11.984;2022-07-06T05:16:36;0.73;;;0.30;;
13002;SDS011;6566;57.702;11.984;2022-07-06T05:19:03;3.97;;;0.40;;
13002;SDS011;6566;57.702;11.984;2022-07-06T05:21:30;5.80;;;0.60;;
13002;SDS011;6566;57.702;11.984;2022-07-06T05:23:56;2.30;;;0.38;;
13002;SDS011;6566;57.702;11.984;2022-07-06T05:26:23;5.18;;;0.80;;
13002;SDS011;6566;57.702;11.984;2022-07-06T05:28:49;2.47;;;0.35;;
13002;SDS011;6566;57.702;11.984;2022-07-06T05:31:16;3.22;;;0.22;;
13002;SDS011;6566;57.702;11.984;2022-07-06T05:33:42;2.55;;;0.40;;
13002;SDS011;6566;57.702;11.984;2022-07-06T05:36:09;3.20;;;0.57;;
13002;SDS011;6566;57.702;11.984;2022-07-06T05:38:35;2.75;;;0.60;;
13002;SDS011;6566;57.702;11.984;2022-07-06T05:41:01;3.10;;;0.60;;
13002;SDS011;6566;57.702;11.984;2022-07-06T05:43:28;1.67;;;0.50;;
13002;SDS011;6566;57.702;11.984;2022-07-06T05:45:55;3.45;;;0.50;;
13002;SDS011;6566;57.702;11.984;2022-07-06T05:48:21;2.75;;;0.85;;
13002;SDS011;6566;57.702;11.984;2022-07-06T05:51:06;3.65;;;0.73;;
13002;SDS011;6566;57.702;11.984;2022-07-06T05:53:33;3.47;;;0.30;;
13002;SDS011;6566;57.702;11.984;2022-07-06T05:55:59;4.80;;;0.50;;
13002;SDS011;6566;57.702;11.984;2022-07-06T05:58:25;1.23;;;0.43;;
13002;SDS011;6566;57.702;11.984;2022-07-06T06:00:51;1.33;;;0.60;;
13002;SDS011;6566;57.702;11.984;2022-07-06T06:03:17;5.15;;;0.40;;
13002;SDS011;6566;57.702;11.984;2022-07-06T06:05:44;2.65;;;0.40;;
13002;SDS011;6566;57.702;11.984;2022-07-06T06:08:09;2.65;;;0.47;;
13002;SDS011;6566;57.702;11.984;2022-07-06T06:10:36;2.57;;;0.40;;
13002;SDS011;6566;57.702;11.984;2022-07-06T06:13:02;2.65;;;0.52;;
13002;SDS011;6566;57.702;11.984;2022-07-06T06:15:28;1.65;;;0.30;;
13002;SDS011;6566;57.702;11.984;2022-07-06T06:17:55;2.85;;;0.52;;
13002;SDS011;6566;57.702;11.984;2022-07-06T06:20:21;2.35;;;0.22;;
13002;SDS011;6566;57.702;11.984;2022-07-06T06:22:50;2.17;;;0.40;;
13002;SDS011;6566;57.702;11.984;2022-07-06T06:25:18;1.63;;;0.40;;
13002;SDS011;6566;57.702;11.984;2022-07-06T06:27:45;5.10;;;0.60;;
13002;SDS011;6566;57.702;11.984;2022-07-06T06:30:12;0.95;;;0.30;;
13002;SDS011;6566;57.702;11.984;2022-07-06T06:32:38;1.58;;;0.32;;
13002;SDS011;6566;57.702;11.984;2022-07-06T06:35:05;2.58;;;0.50;;
13002;SDS011;6566;57.702;11.984;2022-07-06T06:37:32;3.20;;;0.60;;
13002;SDS011;6566;57.702;11.984;2022-07-06T06:40:01;1.55;;;0.20;;
13002;SDS011;6566;57.702;11.984;2022-07-06T06:42:27;2.08;;;0.40;;
13002;SDS011;6566;57.702;11.984;2022-07-06T06:44:53;2.60;;;0.30;;
13002;SDS011;6566;57.702;11.984;2022-07-06T06:47:20;3.20;;;0.40;;
13002;SDS011;6566;57.702;11.984;2022-07-06T06:49:46;2.95;;;0.30;;
13002;SDS011;6566;57.702;11.984;2022-07-06T06:52:13;1.75;;;0.50;;
13002;SDS011;6566;57.702;11.984;2022-07-06T06:54:40;3.08;;;0.50;;
13002;SDS011;6566;57.702;11.984;2022-07-06T06:57:05;2.75;;;0.40;;
13002;SDS011;6566;57.702;11.984;2022-07-06T06:59:31;3.77;;;0.40;;
13002;SDS011;6566;57.702;11.984;2022-07-06T07:01:58;1.25;;;0.30;;
13002;SDS011;6566;57.702;11.984;2022-07-06T07:04:25;2.53;;;0.60;;
13002;SDS011;6566;57.702;11.984;2022-07-06T07:06:51;1.27;;;0.30;;
13002;SDS011;6566;57.702;11.984;2022-07-06T07:09:17;1.67;;;0.40;;
13002;SDS011;6566;57.702;11.984;2022-07-06T07:11:43;3.95;;;0.35;;
13002;SDS011;6566;57.702;11.984;2022-07-06T07:14:09;1.75;;;0.60;;
13002;SDS011;6566;57.702;11.984;2022-07-06T07:16:35;1.17;;;0.30;;
13002;SDS011;6566;57.702;11.984;2022-07-06T07:19:02;0.63;;;0.20;;
13002;SDS011;6566;57.702;11.984;2022-07-06T07:21:28;3.00;;;0.47;;
13002;SDS011;6566;57.702;11.984;2022-07-06T07:23:54;3.53;;;0.50;;
13002;SDS011;6566;57.702;11.984;2022-07-06T07:26:20;0.88;;;0.40;;
13002;SDS011;6566;57.702;11.984;2022-07-06T07:28:46;2.03;;;0.30;;
13002;SDS011;6566;57.702;11.984;2022-07-06T07:31:13;1.25;;;0.30;;
13002;SDS011;6566;57.702;11.984;2022-07-06T07:33:39;1.50;;;0.30;;
13002;SDS011;6566;57.702;11.984;2022-07-06T07:36:06;1.95;;;0.40;;
13002;SDS011;6566;57.702;11.984;2022-07-06T07:38:32;1.17;;;0.30;;
13002;SDS011;6566;57.702;11.984;2022-07-06T07:40:59;1.98;;;0.50;;
13002;SDS011;6566;57.702;11.984;2022-07-06T07:43:25;0.85;;;0.30;;
13002;SDS011;6566;57.702;11.984;2022-07-06T07:45:51;2.35;;;0.30;;
13002;SDS011;6566;57.702;11.984;2022-07-06T07:48:18;3.80;;;0.50;;
13002;SDS011;6566;57.702;11.984;2022-07-06T07:50:44;1.75;;;0.20;;
13002;SDS011;6566;57.702;11.984;2022-07-06T07:53:11;1.70;;;0.30;;
13002;SDS011;6566;57.702;11.984;2022-07-06T07:55:38;2.10;;;0.32;;
13002;SDS011;6566;57.702;11.984;2022-07-06T07:58:04;3.28;;;0.50;;
13002;SDS011;6566;57.702;11.984;2022-07-06T08:00:30;0.77;;;0.35;;
13002;SDS011;6566;57.702;11.984;2022-07-06T08:02:57;1.75;;;0.45;;
13002;SDS011;6566;57.702;11.984;2022-07-06T08:05:23;1.42;;;0.30;;
13002;SDS011;6566;57.702;11.984;2022-07-06T08:07:50;0.95;;;0.38;;
13002;SDS011;6566;57.702;11.984;2022-07-06T08:10:17;4.63;;;0.68;;
13002;SDS011;6566;57.702;11.984;2022-07-06T08:12:44;0.75;;;0.30;;
13002;SDS011;6566;57.702;11.984;2022-07-06T08:15:11;3.30;;;0.40;;
13002;SDS011;6566;57.702;11.984;2022-07-06T08:17:37;1.50;;;0.10;;
13002;SDS011;6566;57.702;11.984;2022-07-06T08:20:04;1.35;;;0.40;;
13002;SDS011;6566;57.702;11.984;2022-07-06T08:22:31;1.15;;;0.45;;
13002;SDS011;6566;57.702;11.984;2022-07-06T08:24:57;0.88;;;0.30;;
13002;SDS011;6566;57.702;11.984;2022-07-06T08:27:24;0.10;;;0.10;;
13002;SDS011;6566;57.702;11.984;2022-07-06T08:29:51;1.07;;;0.60;;
13002;SDS011;6566;57.702;11.984;2022-07-06T08:32:17;1.63;;;0.20;;
13002;SDS011;6566;57.702;11.984;2022-07-06T08:34:46;0.77;;;0.20;;
13002;SDS011;6566;57.702;11.984;2022-07-06T08:37:13;1.42;;;0.50;;
13002;SDS011;6566;57.702;11.984;2022-07-06T08:39:40;2.40;;;0.22;;
13002;SDS011;6566;57.702;11.984;2022-07-06T08:42:07;1.55;;;0.30;;
13002;SDS011;6566;57.702;11.984;2022-07-06T08:44:34;2.95;;;0.43;;
13002;SDS011;6566;57.702;11.984;2022-07-06T08:47:02;2.92;;;0.40;;
13002;SDS011;6566;57.702;11.984;2022-07-06T08:49:30;0.90;;;0.20;;
13002;SDS011;6566;57.702;11.984;2022-07-06T08:51:57;1.55;;;0.20;;
13002;SDS011;6566;57.702;11.984;2022-07-06T08:54:23;0.50;;;0.10;;
13002;SDS011;6566;57.702;11.984;2022-07-06T08:56:50;1.83;;;0.25;;
13002;SDS011;6566;57.702;11.984;2022-07-06T08:59:17;1.55;;;0.30;;
13002;SDS011;6566;57.702;11.984;2022-07-06T09:01:44;0.77;;;0.30;;
13002;SDS011;6566;57.702;11.984;2022-07-06T09:04:10;3.60;;;0.65;;
13002;SDS011;6566;57.702;11.984;2022-07-06T09:06:42;3.10;;;0.60;;
13002;SDS011;6566;57.702;11.984;2022-07-06T09:09:08;0.85;;;0.30;;
13002;SDS011;6566;57.702;11.984;2022-07-06T09:11:34;2.60;;;0.55;;
13002;SDS011;6566;57.702;11.984;2022-07-06T09:14:01;2.47;;;0.50;;
13002;SDS011;6566;57.702;11.984;2022-07-06T09:16:29;0.63;;;0.22;;
13002;SDS011;6566;57.702;11.984;2022-07-06T09:18:56;2.83;;;0.40;;
13002;SDS011;6566;57.702;11.984;2022-07-06T09:21:25;1.42;;;0.47;;
13002;SDS011;6566;57.702;11.984;2022-07-06T09:23:56;2.95;;;0.40;;
13002;SDS011;6566;57.702;11.984;2022-07-06T09:26:26;2.00;;;0.40;;
13002;SDS011;6566;57.702;11.984;2022-07-06T09:28:54;1.23;;;0.40;;
13002;SDS011;6566;57.702;11.984;2022-07-06T09:31:21;1.17;;;0.20;;
13002;SDS011;6566;57.702;11.984;2022-07-06T09:33:59;2.03;;;0.30;;
13002;SDS011;6566;57.702;11.984;2022-07-06T09:36:46;0.68;;;0.30;;
13002;SDS011;6566;57.702;11.984;2022-07-06T09:39:28;6.43;;;0.60;;
13002;SDS011;6566;57.702;11.984;2022-07-06T09:41:57;0.52;;;0.30;;
13002;SDS011;6566;57.702;11.984;2022-07-06T09:44:35;3.30;;;0.55;;
13002;SDS011;6566;57.702;11.984;2022-07-06T09:47:11;3.15;;;0.40;;
13002;SDS011;6566;57.702;11.984;2022-07-06T09:49:38;1.27;;;0.38;;
13002;SDS011;6566;57.702;11.984;2022-07-06T09:52:09;1.83;;;0.40;;
13002;SDS011;6566;57.702;11.984;2022-07-06T09:54:36;0.60;;;0.30;;
13002;SDS011;6566;57.702;11.984;2022-07-06T09:57:04;1.08;;;0.30;;
13002;SDS011;6566;57.702;11.984;2022-07-06T09:59:31;2.17;;;0.20;;
13002;SDS011;6566;57.702;11.984;2022-07-06T10:01:58;2.03;;;0.30;;
13002;SDS011;6566;57.702;11.984;2022-07-06T10:04:25;1.83;;;0.50;;
13002;SDS011;6566;57.702;11.984;2022-07-06T10:06:52;0.60;;;0.30;;
13002;SDS011;6566;57.702;11.984;2022-07-06T10:09:18;2.35;;;0.32;;
13002;SDS011;6566;57.702;11.984;2022-07-06T10:11:47;1.17;;;0.30;;
13002;SDS011;6566;57.702;11.984;2022-07-06T10:14:18;2.63;;;0.82;;
13002;SDS011;6566;57.702;11.984;2022-07-06T10:16:49;1.88;;;0.28;;
13002;SDS011;6566;57.702;11.984;2022-07-06T10:19:17;3.40;;;0.50;;
13002;SDS011;6566;57.702;11.984;2022-07-06T10:21:44;3.67;;;0.50;;
13002;SDS011;6566;57.702;11.984;2022-07-06T10:24:11;2.80;;;0.55;;
13002;SDS011;6566;57.702;11.984;2022-07-06T10:26:40;0.73;;;0.30;;
13002;SDS011;6566;57.702;11.984;2022-07-06T10:29:11;5.60;;;0.80;;
13002;SDS011;6566;57.702;11.984;2022-07-06T10:31:38;2.55;;;0.50;;
13002;SDS011;6566;57.702;11.984;2022-07-06T10:34:09;1.00;;;0.30;;
13002;SDS011;6566;57.702;11.984;2022-07-06T10:36:40;2.17;;;0.30;;
13002;SDS011;6566;57.702;11.984;2022-07-06T10:39:07;2.22;;;0.40;;
13002;SDS011;6566;57.702;11.984;2022-07-06T10:41:53;1.58;;;0.47;;
13002;SDS011;6566;57.702;11.984;2022-07-06T10:44:24;2.92;;;0.30;;
13002;SDS011;6566;57.702;11.984;2022-07-06T10:46:56;2.03;;;0.47;;
13002;SDS011;6566;57.702;11.984;2022-07-06T10:49:23;1.85;;;0.13;;
13002;SDS011;6566;57.702;11.984;2022-07-06T10:51:50;4.32;;;0.45;;
13002;SDS011;6566;57.702;11.984;2022-07-06T10:54:16;1.85;;;0.45;;
13002;SDS011;6566;57.702;11.984;2022-07-06T10:56:45;0.43;;;0.20;;
13002;SDS011;6566;57.702;11.984;2022-07-06T10:59:22;1.70;;;0.50;;
13002;SDS011;6566;57.702;11.984;2022-07-06T11:04:34;1.30;;;0.43;;
13002;SDS011;6566;57.702;11.984;2022-07-06T11:07:10;2.72;;;0.38;;
13002;SDS011;6566;57.702;11.984;2022-07-06T11:09:37;1.95;;;0.50;;
13002;SDS011;6566;57.702;11.984;2022-07-06T11:12:20;1.60;;;0.40;;
13002;SDS011;6566;57.702;11.984;2022-07-06T11:14:47;2.45;;;0.40;;
13002;SDS011;6566;57.702;11.984;2022-07-06T11:17:14;0.77;;;0.35;;
13002;SDS011;6566;57.702;11.984;2022-07-06T11:20:08;2.58;;;0.60;;
13002;SDS011;6566;57.702;11.984;2022-07-06T11:22:35;0.65;;;0.35;;
13002;SDS011;6566;57.702;11.984;2022-07-06T11:25:03;3.20;;;0.50;;
13002;SDS011;6566;57.702;11.984;2022-07-06T11:27:29;3.58;;;0.60;;
13002;SDS011;6566;57.702;11.984;2022-07-06T11:29:56;2.97;;;0.52;;
13002;SDS011;6566;57.702;11.984;2022-07-06T11:32:26;3.13;;;0.40;;
13002;SDS011;6566;57.702;11.984;2022-07-06T11:34:52;0.73;;;0.20;;
13002;SDS011;6566;57.702;11.984;2022-07-06T11:37:19;3.85;;;0.60;;
13002;SDS011;6566;57.702;11.984;2022-07-06T11:39:47;1.55;;;0.40;;
13002;SDS011;6566;57.702;11.984;2022-07-06T11:42:14;1.88;;;0.43;;
13002;SDS011;6566;57.702;11.984;2022-07-06T11:44:41;3.13;;;0.47;;
13002;SDS011;6566;57.702;11.984;2022-07-06T11:47:07;1.85;;;0.40;;
13002;SDS011;6566;57.702;11.984;2022-07-06T11:49:35;1.38;;;0.40;;
13002;SDS011;6566;57.702;11.984;2022-07-06T11:52:05;3.35;;;0.73;;
13002;SDS011;6566;57.702;11.984;2022-07-06T11:54:32;5.63;;;0.57;;
13002;SDS011;6566;57.702;11.984;2022-07-06T11:56:59;2.40;;;0.40;;
13002;SDS011;6566;57.702;11.984;2022-07-06T11:59:29;0.90;;;0.32;;
13002;SDS011;6566;57.702;11.984;2022-07-06T12:02:02;1.50;;;0.60;;
13002;SDS011;6566;57.702;11.984;2022-07-06T12:04:42;1.98;;;0.65;;
13002;SDS011;6566;57.702;11.984;2022-07-06T12:07:09;5.47;;;0.88;;
13002;SDS011;6566;57.702;11.984;2022-07-06T12:09:41;3.53;;;0.88;;
13002;SDS011;6566;57.702;11.984;2022-07-06T12:12:09;2.65;;;0.63;;
13002;SDS011;6566;57.702;11.984;2022-07-06T12:14:36;5.55;;;0.82;;
13002;SDS011;6566;57.702;11.984;2022-07-06T12:17:35;4.97;;;0.70;;
13002;SDS011;6566;57.702;11.984;2022-07-06T12:19:54;2.25;;;0.60;;
13002;SDS011;6566;57.702;11.984;2022-07-06T12:22:27;1.27;;;0.38;;
13002;SDS011;6566;57.702;11.984;2022-07-06T12:24:54;1.30;;;0.38;;
13002;SDS011;6566;57.702;11.984;2022-07-06T12:27:20;2.13;;;0.35;;
13002;SDS011;6566;57.702;11.984;2022-07-06T12:29:47;3.58;;;0.63;;
13002;SDS011;6566;57.702;11.984;2022-07-06T12:32:21;9.13;;;1.02;;
13002;SDS011;6566;57.702;11.984;2022-07-06T12:35:07;2.97;;;0.55;;
13002;SDS011;6566;57.702;11.984;2022-07-06T12:37:35;6.53;;;1.02;;
13002;SDS011;6566;57.702;11.984;2022-07-06T12:40:04;2.17;;;0.80;;
13002;SDS011;6566;57.702;11.984;2022-07-06T12:42:46;6.40;;;1.15;;
13002;SDS011;6566;57.702;11.984;2022-07-06T12:45:13;2.22;;;0.45;;
13002;SDS011;6566;57.702;11.984;2022-07-06T12:47:38;6.50;;;0.80;;
13002;SDS011;6566;57.702;11.984;2022-07-06T12:50:10;3.17;;;0.77;;
13002;SDS011;6566;57.702;11.984;2022-07-06T12:52:37;4.97;;;0.65;;
13002;SDS011;6566;57.702;11.984;2022-07-06T12:55:04;5.72;;;0.65;;
13002;SDS011;6566;57.702;11.984;2022-07-06T12:57:52;5.43;;;1.05;;
13002;SDS011;6566;57.702;11.984;2022-07-06T13:00:18;6.20;;;0.70;;
13002;SDS011;6566;57.702;11.984;2022-07-06T13:02:48;5.57;;;0.90;;
13002;SDS011;6566;57.702;11.984;2022-07-06T13:05:18;3.15;;;1.00;;
13002;SDS011;6566;57.702;11.984;2022-07-06T13:07:48;8.05;;;1.10;;
13002;SDS011;6566;57.702;11.984;2022-07-06T13:10:15;5.47;;;1.10;;
13002;SDS011;6566;57.702;11.984;2022-07-06T13:12:45;6.90;;;1.20;;
13002;SDS011;6566;57.702;11.984;2022-07-06T13:15:11;8.32;;;1.45;;
13002;SDS011;6566;57.702;11.984;2022-07-06T13:17:38;2.13;;;1.00;;
13002;SDS011;6566;57.702;11.984;2022-07-06T13:20:05;9.93;;;1.40;;
13002;SDS011;6566;57.702;11.984;2022-07-06T13:22:32;8.32;;;1.35;;
13002;SDS011;6566;57.702;11.984;2022-07-06T13:24:59;8.93;;;1.50;;
13002;SDS011;6566;57.702;11.984;2022-07-06T13:27:24;10.52;;;1.38;;
13002;SDS011;6566;57.702;11.984;2022-07-06T13:29:52;9.82;;;1.45;;
13002;SDS011;6566;57.702;11.984;2022-07-06T13:32:18;6.40;;;1.00;;
13002;SDS011;6566;57.702;11.984;2022-07-06T13:34:45;4.05;;;1.25;;
13002;SDS011;6566;57.702;11.984;2022-07-06T13:37:11;9.48;;;1.45;;
13002;SDS011;6566;57.702;11.984;2022-07-06T13:39:38;9.40;;;1.50;;
13002;SDS011;6566;57.702;11.984;2022-07-06T13:42:04;9.90;;;1.55;;
13002;SDS011;6566;57.702;11.984;2022-07-06T13:44:31;6.88;;;1.27;;
13002;SDS011;6566;57.702;11.984;2022-07-06T13:46:57;11.18;;;1.40;;
13002;SDS011;6566;57.702;11.984;2022-07-06T13:49:24;11.13;;;1.80;;
13002;SDS011;6566;57.702;11.984;2022-07-06T13:51:50;13.60;;;1.77;;
13002;SDS011;6566;57.702;11.984;2022-07-06T13:54:17;10.90;;;1.90;;
13002;SDS011;6566;57.702;11.984;2022-07-06T13:56:43;7.85;;;1.38;;
13002;SDS011;6566;57.702;11.984;2022-07-06T13:59:09;12.93;;;1.45;;
13002;SDS011;6566;57.702;11.984;2022-07-06T14:01:36;9.05;;;1.40;;
13002;SDS011;6566;57.702;11.984;2022-07-06T14:04:03;8.43;;;1.50;;
13002;SDS011;6566;57.702;11.984;2022-07-06T14:06:29;12.20;;;1.40;;
13002;SDS011;6566;57.702;11.984;2022-07-06T14:08:55;7.93;;;1.15;;
13002;SDS011;6566;57.702;11.984;2022-07-06T14:11:22;4.88;;;1.00;;
13002;SDS011;6566;57.702;11.984;2022-07-06T14:13:48;7.25;;;1.17;;
13002;SDS011;6566;57.702;11.984;2022-07-06T14:16:14;9.48;;;1.20;;
13002;SDS011;6566;57.702;11.984;2022-07-06T14:18:41;3.17;;;1.02;;
13002;SDS011;6566;57.702;11.984;2022-07-06T14:21:10;4.93;;;1.00;;
13002;SDS011;6566;57.702;11.984;2022-07-06T14:23:37;9.52;;;1.17;;
13002;SDS011;6566;57.702;11.984;2022-07-06T14:26:04;11.48;;;1.20;;
13002;SDS011;6566;57.702;11.984;2022-07-06T14:28:31;9.30;;;1.10;;
13002;SDS011;6566;57.702;11.984;2022-07-06T14:30:57;3.00;;;0.63;;
13002;SDS011;6566;57.702;11.984;2022-07-06T14:33:28;2.25;;;0.73;;
13002;SDS011;6566;57.702;11.984;2022-07-06T14:35:54;6.75;;;0.77;;
13002;SDS011;6566;57.702;11.984;2022-07-06T14:38:20;4.60;;;0.70;;
13002;SDS011;6566;57.702;11.984;2022-07-06T14:40:47;6.18;;;0.80;;
13002;SDS011;6566;57.702;11.984;2022-07-06T14:43:16;3.53;;;0.50;;
13002;SDS011;6566;57.702;11.984;2022-07-06T14:45:44;2.65;;;0.60;;
13002;SDS011;6566;57.702;11.984;2022-07-06T14:48:11;5.63;;;1.15;;
13002;SDS011;6566;57.702;11.984;2022-07-06T14:50:38;5.28;;;0.88;;
13002;SDS011;6566;57.702;11.984;2022-07-06T14:53:04;4.68;;;0.75;;